createdAt,value
2018-07-23T00:01:29.535Z,53.30
2018-07-23T00:03:58.126Z,54.10
2018-07-23T00:06:26.698Z,53.23
2018-07-23T00:08:55.524Z,57.13
2018-07-23T00:11:24.174Z,54.80
2018-07-23T00:13:52.759Z,59.37
2018-07-23T00:16:21.293Z,59.73
2018-07-23T00:18:49.833Z,54.20
2018-07-23T00:21:18.393Z,57.80
2018-07-23T00:23:46.926Z,55.47
2018-07-23T00:26:15.563Z,55.60
2018-07-23T00:28:44.102Z,52.77
2018-07-23T00:31:12.717Z,50.80
2018-07-23T00:33:41.289Z,46.77
2018-07-23T00:36:09.830Z,43.63
2018-07-23T00:38:38.414Z,46.97
2018-07-23T00:41:06.971Z,46.77
2018-07-23T00:43:35.489Z,48.20
2018-07-23T00:46:04.289Z,48.40
2018-07-23T00:48:32.875Z,48.90
2018-07-23T00:51:01.433Z,48.40
2018-07-23T00:53:30.035Z,51.03
2018-07-23T00:55:58.597Z,53.27
2018-07-23T00:58:27.299Z,53.50
2018-07-23T01:00:55.821Z,53.30
2018-07-23T01:03:24.410Z,55.43
2018-07-23T01:05:52.954Z,56.87
2018-07-23T01:08:21.522Z,60.30
2018-07-23T01:10:50.138Z,60.70
2018-07-23T01:13:18.701Z,58.20
2018-07-23T01:15:47.234Z,59.33
2018-07-23T01:18:15.793Z,59.27
2018-07-23T01:20:44.450Z,63.10
2018-07-23T01:23:13.000Z,64.37
2018-07-23T01:25:41.775Z,63.20
2018-07-23T01:28:10.423Z,63.50
2018-07-23T01:30:38.961Z,66.40
2018-07-23T01:33:07.471Z,65.70
2018-07-23T01:35:36.166Z,63.20
2018-07-23T01:38:04.915Z,60.53
2018-07-23T01:40:33.467Z,49.73
2018-07-23T01:43:02.155Z,44.70
2018-07-23T01:45:30.673Z,44.63
2018-07-23T01:47:59.242Z,40.27
2018-07-23T01:50:27.850Z,36.80
2018-07-23T01:52:56.586Z,33.30
2018-07-23T01:55:25.206Z,32.73
2018-07-23T01:57:54.089Z,33.33
2018-07-23T02:00:22.777Z,34.37
2018-07-23T02:02:51.858Z,36.23
2018-07-23T02:05:20.539Z,36.63
2018-07-23T02:07:49.099Z,38.17
2018-07-23T02:10:17.614Z,38.57
2018-07-23T02:12:46.153Z,41.20
2018-07-23T02:15:14.766Z,41.40
2018-07-23T02:17:43.346Z,45.43
2018-07-23T02:20:11.929Z,45.50
2018-07-23T02:22:40.487Z,43.70
2018-07-23T02:25:09.102Z,45.77
2018-07-23T02:27:37.926Z,42.00
2018-07-23T02:30:06.731Z,39.03
2018-07-23T02:32:35.349Z,38.67
2018-07-23T02:35:03.921Z,38.07
2018-07-23T02:37:32.522Z,35.87
2018-07-23T02:40:01.411Z,36.10
2018-07-23T02:42:29.958Z,38.20
2018-07-23T02:44:58.585Z,38.83
2018-07-23T02:47:26.897Z,38.07
2018-07-23T02:49:55.698Z,35.67
2018-07-23T02:52:24.256Z,39.30
2018-07-23T02:54:52.839Z,40.43
2018-07-23T02:57:21.371Z,40.47
2018-07-23T02:59:49.940Z,42.87
2018-07-23T03:02:18.505Z,45.30
2018-07-23T03:04:47.057Z,44.30
2018-07-23T03:07:15.622Z,45.43
2018-07-23T03:09:44.622Z,41.00
2018-07-23T03:12:12.803Z,42.93
2018-07-23T03:14:41.381Z,40.53
2018-07-23T03:17:10.286Z,44.80
2018-07-23T03:19:38.814Z,41.27
2018-07-23T03:22:07.403Z,41.37
2018-07-23T03:24:35.950Z,43.97
2018-07-23T03:27:04.711Z,44.67
2018-07-23T03:29:33.330Z,43.73
2018-07-23T03:32:01.991Z,44.37
2018-07-23T03:34:30.526Z,42.97
2018-07-23T03:36:59.169Z,41.20
2018-07-23T03:39:27.678Z,37.10
2018-07-23T03:41:56.258Z,36.17
2018-07-23T03:44:24.815Z,36.70
2018-07-23T03:46:53.460Z,36.20
2018-07-23T03:49:22.074Z,36.10
2018-07-23T03:51:50.681Z,36.60
2018-07-23T03:54:19.472Z,34.27
2018-07-23T03:56:48.018Z,36.93
2018-07-23T03:59:16.588Z,34.77
2018-07-23T04:01:45.354Z,36.43
2018-07-23T04:04:16.942Z,36.00
2018-07-23T04:06:47.026Z,38.87
2018-07-23T04:09:16.149Z,38.07
2018-07-23T04:11:45.570Z,38.17
2018-07-23T04:14:14.539Z,37.30
2018-07-23T04:16:43.082Z,36.50
2018-07-23T04:19:11.729Z,36.30
2018-07-23T04:21:40.410Z,38.90
2018-07-23T04:24:09.035Z,40.50
2018-07-23T04:26:37.790Z,43.57
2018-07-23T04:29:06.547Z,42.70
2018-07-23T04:31:35.059Z,44.90
2018-07-23T04:34:03.706Z,41.70
2018-07-23T04:36:32.222Z,41.97
2018-07-23T04:39:00.894Z,44.53
2018-07-23T04:41:29.444Z,44.30
2018-07-23T04:43:58.012Z,42.90
2018-07-23T04:46:26.686Z,41.40
2018-07-23T04:48:55.370Z,36.90
2018-07-23T04:51:24.018Z,40.90
2018-07-23T04:53:52.667Z,43.20
2018-07-23T04:56:21.246Z,43.67
2018-07-23T04:58:50.350Z,42.17
2018-07-23T05:01:18.915Z,41.13
2018-07-23T05:03:47.547Z,40.77
2018-07-23T05:06:16.100Z,38.30
2018-07-23T05:08:44.631Z,40.33
2018-07-23T05:11:13.258Z,43.00
2018-07-23T05:13:42.015Z,43.03
2018-07-23T05:16:10.598Z,41.00
2018-07-23T05:18:39.162Z,42.73
2018-07-23T05:21:07.842Z,39.93
2018-07-23T05:23:36.536Z,41.73
2018-07-23T05:26:05.177Z,42.30
2018-07-23T05:28:33.730Z,43.40
2018-07-23T05:31:02.301Z,42.97
2018-07-23T05:33:30.944Z,41.60
2018-07-23T05:35:59.542Z,43.30
2018-07-23T05:38:28.166Z,43.57
2018-07-23T05:40:56.677Z,42.40
2018-07-23T05:43:25.226Z,39.23
2018-07-23T05:45:53.782Z,41.30
2018-07-23T05:48:22.684Z,37.43
2018-07-23T05:50:51.298Z,37.10
2018-07-23T05:53:19.979Z,37.80
2018-07-23T05:55:48.727Z,38.87
2018-07-23T05:58:17.501Z,38.90
2018-07-23T06:00:46.010Z,39.40
2018-07-23T06:03:14.674Z,38.00
2018-07-23T06:05:43.247Z,38.00
2018-07-23T06:08:11.789Z,34.50
2018-07-23T06:10:40.742Z,42.83
2018-07-23T06:13:09.391Z,36.60
2018-07-23T06:15:37.947Z,40.67
2018-07-23T06:18:06.743Z,40.27
2018-07-23T06:20:35.383Z,45.35
2018-07-23T06:23:04.015Z,47.17
2018-07-23T06:25:32.595Z,42.13
2018-07-23T06:28:01.406Z,41.10
2018-07-23T06:30:30.006Z,38.53
2018-07-23T06:32:58.737Z,40.15
2018-07-23T06:35:27.442Z,36.63
2018-07-23T06:37:56.252Z,38.47
2018-07-23T06:40:24.822Z,40.27
2018-07-23T06:42:54.010Z,39.10
2018-07-23T06:45:22.670Z,39.93
2018-07-23T06:47:51.262Z,37.40
2018-07-23T06:50:19.814Z,38.80
2018-07-23T06:52:48.397Z,41.47
2018-07-23T06:55:16.966Z,40.43
2018-07-23T06:57:45.605Z,39.47
2018-07-23T07:00:14.443Z,41.03
2018-07-23T07:02:43.194Z,39.53
2018-07-23T07:05:11.986Z,40.43
2018-07-23T07:07:40.687Z,41.90
2018-07-23T07:10:09.239Z,40.70
2018-07-23T07:12:37.790Z,38.07
2018-07-23T07:15:06.763Z,40.60
2018-07-23T07:17:35.316Z,40.77
2018-07-23T07:20:04.008Z,42.47
2018-07-23T07:22:32.558Z,39.60
2018-07-23T07:25:01.305Z,36.63
2018-07-23T07:27:29.834Z,37.03
2018-07-23T07:29:58.718Z,38.20
2018-07-23T07:32:27.287Z,36.13
2018-07-23T07:34:55.956Z,36.53
2018-07-23T07:37:24.605Z,38.33
2018-07-23T07:39:53.314Z,35.33
2018-07-23T07:42:21.983Z,36.77
2018-07-23T07:44:50.546Z,35.60
2018-07-23T07:47:19.137Z,37.47
2018-07-23T07:49:47.660Z,37.20
2018-07-23T07:52:16.478Z,34.57
2018-07-23T07:54:45.415Z,35.70
2018-07-23T07:57:13.999Z,35.17
2018-07-23T07:59:42.571Z,35.47
2018-07-23T08:02:11.231Z,34.77
2018-07-23T08:04:39.944Z,32.30
2018-07-23T08:07:08.677Z,31.50
2018-07-23T08:09:37.419Z,31.70
2018-07-23T08:12:05.956Z,29.50
2018-07-23T08:14:34.641Z,29.87
2018-07-23T08:17:03.170Z,30.27
2018-07-23T08:19:31.746Z,31.97
2018-07-23T08:22:00.569Z,30.73
2018-07-23T08:24:29.281Z,28.60
2018-07-23T08:26:57.886Z,29.70
2018-07-23T08:29:26.241Z,28.13
2018-07-23T08:31:55.133Z,29.83
2018-07-23T08:34:23.830Z,27.47
2018-07-23T08:36:52.601Z,30.50
2018-07-23T08:39:21.347Z,31.13
2018-07-23T08:41:50.123Z,28.30
2018-07-23T08:44:18.799Z,28.57
2018-07-23T08:46:47.396Z,28.30
2018-07-23T08:49:16.054Z,28.93
2018-07-23T08:51:44.612Z,28.03
2018-07-23T08:54:13.186Z,28.37
2018-07-23T08:56:41.747Z,27.07
2018-07-23T08:59:10.309Z,30.00
2018-07-23T09:01:39.047Z,30.10
2018-07-23T09:04:07.981Z,31.67
2018-07-23T09:06:37.786Z,28.97
2018-07-23T09:09:08.468Z,31.17
2018-07-23T09:11:37.043Z,30.43
2018-07-23T09:14:06.259Z,29.80
2018-07-23T09:16:35.083Z,27.47
2018-07-23T09:19:03.958Z,29.90
2018-07-23T09:21:32.574Z,30.00
2018-07-23T09:24:01.318Z,30.37
2018-07-23T09:26:29.882Z,27.33
2018-07-23T09:28:58.454Z,27.17
2018-07-23T09:31:26.986Z,26.73
2018-07-23T09:33:55.687Z,29.53
2018-07-23T09:36:24.527Z,29.50
2018-07-23T09:38:52.725Z,29.00
2018-07-23T09:41:21.490Z,27.50
2018-07-23T09:43:50.145Z,26.03
2018-07-23T09:46:18.737Z,23.70
2018-07-23T09:48:47.388Z,25.00
2018-07-23T09:51:16.008Z,21.10
2018-07-23T09:53:44.661Z,24.73
2018-07-23T09:56:13.413Z,24.70
2018-07-23T09:58:41.968Z,18.17
2018-07-23T10:01:11.480Z,20.87
2018-07-23T10:03:40.723Z,21.80
2018-07-23T10:06:09.363Z,20.63
2018-07-23T10:08:37.895Z,22.30
2018-07-23T10:11:06.756Z,21.97
2018-07-23T10:13:35.400Z,22.10
2018-07-23T10:16:04.149Z,19.60
2018-07-23T10:18:32.736Z,20.27
2018-07-23T10:21:01.401Z,21.47
2018-07-23T10:23:30.347Z,19.30
2018-07-23T10:25:59.061Z,19.33
2018-07-23T10:28:27.618Z,18.80
2018-07-23T10:30:56.332Z,18.40
2018-07-23T10:33:24.879Z,18.70
2018-07-23T10:35:53.504Z,20.47
2018-07-23T10:38:22.202Z,18.47
2018-07-23T10:40:50.863Z,16.43
2018-07-23T10:43:19.430Z,18.67
2018-07-23T10:45:47.984Z,16.40
2018-07-23T10:48:16.551Z,16.63
2018-07-23T10:50:45.230Z,15.00
2018-07-23T10:53:13.898Z,14.10
2018-07-23T10:55:42.710Z,15.07
2018-07-23T10:58:11.244Z,14.50
2018-07-23T11:00:39.894Z,15.00
2018-07-23T11:03:08.177Z,14.33
2018-07-23T11:05:36.724Z,13.23
2018-07-23T11:08:05.449Z,16.80
2018-07-23T11:10:33.991Z,16.23
2018-07-23T11:13:02.651Z,14.47
2018-07-23T11:15:31.234Z,14.07
2018-07-23T11:17:59.800Z,14.70
2018-07-23T11:20:28.384Z,17.83
2018-07-23T11:22:57.246Z,15.67
2018-07-23T11:25:39.177Z,16.97
2018-07-23T11:27:54.589Z,17.30
2018-07-23T11:30:23.286Z,16.80
2018-07-23T11:32:52.013Z,16.77
2018-07-23T11:35:20.673Z,18.17
2018-07-23T11:37:49.227Z,14.97
2018-07-23T11:40:17.780Z,16.30
2018-07-23T11:42:46.368Z,16.00
2018-07-23T11:45:14.985Z,15.23
2018-07-23T11:47:43.526Z,15.80
2018-07-23T11:50:12.079Z,16.03
2018-07-23T11:52:40.612Z,13.60
2018-07-23T11:55:09.197Z,13.03
2018-07-23T11:57:37.803Z,15.40
2018-07-23T12:00:06.211Z,13.43
2018-07-23T12:02:34.901Z,12.50
2018-07-23T12:05:03.456Z,12.97
2018-07-23T12:07:32.070Z,12.83
2018-07-23T12:10:00.654Z,13.40
2018-07-23T12:12:29.205Z,13.10
2018-07-23T12:14:57.848Z,14.40
2018-07-23T12:17:26.603Z,13.40
2018-07-23T12:19:55.090Z,14.87
2018-07-23T12:22:23.741Z,13.13
2018-07-23T12:24:52.595Z,13.50
2018-07-23T12:27:21.169Z,12.70
2018-07-23T12:29:49.819Z,12.10
2018-07-23T12:32:18.624Z,13.30
2018-07-23T12:34:47.165Z,13.10
2018-07-23T12:37:15.780Z,13.43
2018-07-23T12:39:44.416Z,12.10
2018-07-23T12:42:13.035Z,12.50
2018-07-23T12:44:41.580Z,13.40
2018-07-23T12:47:10.729Z,11.90
2018-07-23T12:49:39.296Z,13.60
2018-07-23T12:52:08.080Z,11.93
2018-07-23T12:54:36.864Z,11.83
2018-07-23T12:57:05.794Z,12.90
2018-07-23T12:59:34.551Z,11.40
2018-07-23T13:02:03.168Z,12.97
2018-07-23T13:04:31.984Z,12.40
2018-07-23T13:07:00.629Z,11.40
2018-07-23T13:09:29.190Z,11.50
2018-07-23T13:11:57.760Z,11.10
2018-07-23T13:14:26.414Z,12.00
2018-07-23T13:16:55.011Z,11.47
2018-07-23T13:19:23.867Z,12.27
2018-07-23T13:21:52.529Z,12.50
2018-07-23T13:24:21.143Z,11.87
2018-07-23T13:26:49.701Z,11.30
2018-07-23T13:29:18.274Z,11.47
2018-07-23T13:31:46.859Z,11.60
2018-07-23T13:34:15.717Z,10.40
2018-07-23T13:36:44.335Z,10.90
2018-07-23T13:39:14.108Z,10.57
2018-07-23T13:41:42.709Z,10.57
2018-07-23T13:44:12.201Z,10.70
2018-07-23T13:46:40.988Z,11.13
2018-07-23T13:49:09.663Z,10.13
2018-07-23T13:51:38.661Z,11.80
2018-07-23T13:54:07.386Z,10.60
2018-07-23T13:56:36.422Z,10.40
2018-07-23T13:59:04.974Z,11.33
2018-07-23T14:01:33.581Z,11.23
2018-07-23T14:04:02.494Z,10.27
2018-07-23T14:06:31.121Z,11.67
2018-07-23T14:08:59.694Z,11.47
2018-07-23T14:11:28.388Z,11.63
2018-07-23T14:13:57.061Z,10.77
2018-07-23T14:16:25.626Z,10.87
2018-07-23T14:18:54.170Z,11.80
2018-07-23T14:21:22.854Z,11.80
2018-07-23T14:23:51.412Z,11.80
2018-07-23T14:26:20.103Z,11.60
2018-07-23T14:28:48.824Z,11.90
2018-07-23T14:31:17.722Z,12.27
2018-07-23T14:33:46.351Z,12.00
2018-07-23T14:36:14.868Z,12.37
2018-07-23T14:38:43.403Z,11.90
2018-07-23T14:41:12.106Z,11.67
2018-07-23T14:43:40.846Z,12.10
2018-07-23T14:46:09.538Z,12.87
2018-07-23T14:48:38.407Z,11.97
2018-07-23T14:51:07.145Z,13.87
2018-07-23T14:53:35.869Z,13.90
2018-07-23T14:56:04.648Z,12.50
2018-07-23T14:58:33.337Z,14.13
2018-07-23T15:01:01.931Z,13.23
2018-07-23T15:03:30.869Z,12.33
2018-07-23T15:05:59.555Z,12.97
2018-07-23T15:08:28.171Z,13.40
2018-07-23T15:10:56.793Z,13.57
2018-07-23T15:13:25.367Z,12.80
2018-07-23T15:15:53.962Z,14.10
2018-07-23T15:18:22.713Z,12.63
2018-07-23T15:20:51.374Z,13.47
2018-07-23T15:23:19.993Z,13.00
2018-07-23T15:25:48.578Z,13.47
2018-07-23T15:28:17.383Z,13.80
2018-07-23T15:30:45.968Z,14.00
2018-07-23T15:33:14.649Z,13.47
2018-07-23T15:35:43.402Z,13.77
2018-07-23T15:38:11.996Z,13.13
2018-07-23T15:40:40.660Z,13.07
2018-07-23T15:43:09.707Z,14.50
2018-07-23T15:45:38.568Z,14.30
2018-07-23T15:48:07.440Z,13.63
2018-07-23T15:50:36.222Z,13.60
2018-07-23T15:53:04.966Z,13.00
2018-07-23T15:55:33.511Z,13.00
2018-07-23T15:58:02.436Z,13.80
2018-07-23T16:00:31.031Z,13.70
2018-07-23T16:02:59.352Z,14.43
2018-07-23T16:05:27.949Z,13.10
2018-07-23T16:07:56.686Z,12.77
2018-07-23T16:10:25.591Z,12.57
2018-07-23T16:12:54.312Z,12.47
2018-07-23T16:15:23.043Z,12.97
2018-07-23T16:17:51.659Z,12.60
2018-07-23T16:20:20.235Z,11.80
2018-07-23T16:22:48.782Z,11.77
2018-07-23T16:25:17.611Z,11.30
2018-07-23T16:27:46.222Z,11.37
2018-07-23T16:30:15.074Z,11.70
2018-07-23T16:32:43.739Z,11.57
2018-07-23T16:35:13.063Z,10.90
2018-07-23T16:37:41.870Z,11.10
2018-07-23T16:40:10.778Z,12.23
2018-07-23T16:42:39.521Z,11.33
2018-07-23T16:45:08.309Z,11.40
2018-07-23T16:47:37.031Z,12.00
2018-07-23T16:50:05.667Z,12.07
2018-07-23T16:52:34.258Z,11.80
2018-07-23T16:55:03.062Z,11.43
2018-07-23T16:57:31.621Z,11.03
2018-07-23T17:00:00.294Z,12.37
2018-07-23T17:02:29.095Z,10.83
2018-07-23T17:04:57.690Z,12.10
2018-07-23T17:07:26.258Z,11.30
2018-07-23T17:09:54.865Z,12.37
2018-07-23T17:12:23.498Z,11.77
2018-07-23T17:14:52.144Z,11.77
2018-07-23T17:17:20.778Z,11.27
2018-07-23T17:19:49.414Z,11.90
2018-07-23T17:22:18.093Z,12.07
2018-07-23T17:24:46.973Z,11.10
2018-07-23T17:27:15.644Z,11.47
2018-07-23T17:29:44.190Z,11.10
2018-07-23T17:32:12.786Z,12.27
2018-07-23T17:34:41.379Z,11.80
2018-07-23T17:37:10.174Z,11.20
2018-07-23T17:39:39.221Z,11.20
2018-07-23T17:42:08.247Z,9.93
2018-07-23T17:44:36.959Z,10.80
2018-07-23T17:47:05.858Z,11.63
2018-07-23T17:49:34.570Z,11.40
2018-07-23T17:52:03.166Z,11.43
2018-07-23T17:54:31.786Z,11.33
2018-07-23T17:57:00.491Z,11.50
2018-07-23T17:59:29.294Z,10.23
2018-07-23T18:01:58.012Z,10.50
2018-07-23T18:04:26.749Z,10.90
2018-07-23T18:06:55.366Z,11.23
2018-07-23T18:09:23.921Z,10.83
2018-07-23T18:11:52.633Z,11.03
2018-07-23T18:14:21.035Z,11.17
2018-07-23T18:16:49.578Z,12.07
2018-07-23T18:19:18.291Z,12.23
2018-07-23T18:21:47.109Z,11.60
2018-07-23T18:24:15.650Z,12.30
2018-07-23T18:26:44.230Z,11.43
2018-07-23T18:29:13.015Z,10.63
2018-07-23T18:31:41.226Z,11.50
2018-07-23T18:34:10.021Z,11.40
2018-07-23T18:36:38.704Z,12.23
2018-07-23T18:39:09.970Z,11.10
2018-07-23T18:41:38.899Z,11.40
2018-07-23T18:44:07.789Z,11.47
2018-07-23T18:46:36.663Z,11.10
2018-07-23T18:49:32.958Z,10.87
2018-07-23T18:52:01.483Z,12.33
2018-07-23T18:54:31.226Z,11.47
2018-07-23T18:57:01.319Z,11.23
2018-07-23T18:59:30.158Z,11.83
2018-07-23T19:01:59.749Z,11.23
2018-07-23T19:04:28.502Z,12.47
2018-07-23T19:06:57.123Z,11.60
2018-07-23T19:09:26.702Z,11.87
2018-07-23T19:11:55.830Z,10.80
2018-07-23T19:14:24.590Z,11.30
2018-07-23T19:16:54.330Z,10.73
2018-07-23T19:19:23.208Z,11.90
2018-07-23T19:21:51.970Z,11.60
2018-07-23T19:24:20.846Z,11.53
2018-07-23T19:26:49.547Z,12.20
2018-07-23T19:29:18.555Z,12.20
2018-07-23T19:31:47.490Z,12.77
2018-07-23T19:34:16.265Z,12.83
2018-07-23T19:36:44.782Z,12.73
2018-07-23T19:39:15.962Z,11.57
2018-07-23T19:41:44.664Z,12.67
2018-07-23T19:44:13.328Z,12.27
2018-07-23T19:46:42.207Z,12.40
2018-07-23T19:49:11.108Z,12.10
2018-07-23T19:51:39.775Z,15.63
2018-07-23T19:54:09.218Z,20.77
2018-07-23T19:56:38.299Z,14.03
2018-07-23T19:59:07.180Z,11.70
2018-07-23T20:01:36.285Z,12.37
2018-07-23T20:04:05.086Z,12.70
2018-07-23T20:06:33.734Z,13.53
2018-07-23T20:09:02.932Z,12.30
2018-07-23T20:11:31.538Z,12.80
2018-07-23T20:14:00.081Z,13.03
2018-07-23T20:16:28.483Z,12.57
2018-07-23T20:18:57.369Z,12.50
2018-07-23T20:21:26.157Z,12.13
2018-07-23T20:23:54.725Z,13.50
2018-07-23T20:26:23.309Z,13.73
2018-07-23T20:28:51.981Z,13.60
2018-07-23T20:31:20.867Z,14.63
2018-07-23T20:33:49.559Z,14.43
2018-07-23T20:36:18.206Z,13.07
2018-07-23T20:38:47.048Z,13.80
2018-07-23T20:41:15.768Z,13.70
2018-07-23T20:43:44.419Z,12.43
2018-07-23T20:46:13.192Z,13.57
2018-07-23T20:48:42.034Z,13.47
2018-07-23T20:51:10.918Z,14.20
2018-07-23T20:53:39.532Z,15.00
2018-07-23T20:56:08.107Z,13.90
2018-07-23T20:58:36.846Z,13.60
2018-07-23T21:01:05.526Z,14.03
2018-07-23T21:06:20.638Z,14.40
2018-07-23T21:08:49.785Z,15.13
2018-07-23T21:11:18.574Z,15.60
2018-07-23T21:13:47.334Z,15.17
2018-07-23T21:16:16.229Z,14.87
2018-07-23T21:18:44.628Z,15.00
2018-07-23T21:21:13.230Z,13.93
2018-07-23T21:23:41.788Z,13.53
2018-07-23T21:26:10.663Z,14.30
2018-07-23T21:28:39.647Z,13.37
2018-07-23T21:31:08.362Z,14.70
2018-07-23T21:33:37.081Z,14.20
2018-07-23T21:36:06.029Z,14.33
2018-07-23T21:38:34.796Z,14.57
2018-07-23T21:41:03.509Z,14.23
2018-07-23T21:43:32.276Z,14.90
2018-07-23T21:46:00.573Z,14.37
2018-07-23T21:48:29.527Z,14.77
2018-07-23T21:50:58.420Z,13.60
2018-07-23T21:53:26.941Z,14.43
2018-07-23T21:55:55.507Z,16.20
2018-07-23T21:58:24.399Z,14.30
2018-07-23T22:00:52.922Z,15.63
2018-07-23T22:03:21.538Z,15.93
2018-07-23T22:05:50.110Z,16.30
2018-07-23T22:08:18.638Z,17.10
2018-07-23T22:10:47.278Z,17.60
2018-07-23T22:13:15.934Z,18.13
2018-07-23T22:15:44.692Z,16.77
2018-07-23T22:18:13.262Z,19.20
2018-07-23T22:20:41.818Z,19.33
2018-07-23T22:23:10.539Z,17.47
2018-07-23T22:25:39.384Z,16.33
2018-07-23T22:28:07.953Z,16.23
2018-07-23T22:33:39.448Z,16.30
2018-07-23T22:36:07.883Z,15.53
2018-07-23T22:38:36.443Z,16.00
2018-07-23T22:41:04.859Z,16.40
2018-07-23T22:43:33.294Z,16.80
2018-07-23T22:46:01.747Z,16.23
2018-07-23T22:48:30.219Z,18.20
2018-07-23T22:50:58.680Z,19.10
2018-07-23T22:53:27.175Z,18.07
2018-07-23T22:55:55.710Z,18.50
2018-07-23T22:58:23.852Z,18.80
2018-07-23T23:00:52.291Z,19.40
2018-07-23T23:03:20.836Z,20.50
2018-07-23T23:05:49.721Z,19.70
2018-07-23T23:08:18.176Z,19.00
2018-07-23T23:10:46.607Z,18.90
2018-07-23T23:13:15.039Z,18.70
2018-07-23T23:15:43.500Z,18.80
2018-07-23T23:18:11.924Z,18.40
2018-07-23T23:20:40.407Z,19.40
2018-07-23T23:23:08.840Z,19.33
2018-07-23T23:25:37.299Z,18.73
2018-07-23T23:28:06.211Z,19.20
2018-07-23T23:30:34.783Z,20.30
2018-07-23T23:33:03.239Z,19.87
2018-07-23T23:35:31.677Z,18.93
2018-07-23T23:38:00.223Z,20.57
2018-07-23T23:40:28.718Z,20.50
2018-07-23T23:42:57.158Z,19.53
2018-07-23T23:45:25.598Z,20.33
2018-07-23T23:47:54.127Z,19.67
2018-07-23T23:50:22.556Z,19.13
2018-07-23T23:52:51.167Z,20.40
2018-07-23T23:55:19.577Z,20.90
2018-07-23T23:57:48.014Z,21.13
